sensor_id;sensor_type;location;lat;lon;timestamp;temperature;humidity
67901;DHT22;54700;51.796;10.956;2023-04-29T00:01:38;11.70;99.90
67901;DHT22;54700;51.796;10.956;2023-04-29T00:04:05;11.60;99.90
67901;DHT22;54700;51.796;10.956;2023-04-29T00:06:33;11.60;99.90
67901;DHT22;54700;51.796;10.956;2023-04-29T00:09:03;11.60;99.90
67901;DHT22;54700;51.796;10.956;2023-04-29T00:11:33;11.60;99.90
67901;DHT22;54700;51.796;10.956;2023-04-29T00:14:03;11.70;99.90
67901;DHT22;54700;51.796;10.956;2023-04-29T00:16:30;11.70;99.90
67901;DHT22;54700;51.796;10.956;2023-04-29T00:18:57;11.70;99.90
67901;DHT22;54700;51.796;10.956;2023-04-29T00:21:24;11.60;99.90
67901;DHT22;54700;51.796;10.956;2023-04-29T00:23:52;11.60;99.90
67901;DHT22;54700;51.796;10.956;2023-04-29T00:26:21;11.60;99.90
67901;DHT22;54700;51.796;10.956;2023-04-29T00:28:48;11.50;99.90
67901;DHT22;54700;51.796;10.956;2023-04-29T00:31:15;11.50;99.90
67901;DHT22;54700;51.796;10.956;2023-04-29T00:33:41;11.40;99.90
67901;DHT22;54700;51.796;10.956;2023-04-29T00:36:10;11.50;99.90
67901;DHT22;54700;51.796;10.956;2023-04-29T00:38:37;11.50;99.90
67901;DHT22;54700;51.796;10.956;2023-04-29T00:41:04;11.60;99.90
67901;DHT22;54700;51.796;10.956;2023-04-29T00:43:33;11.70;99.90
67901;DHT22;54700;51.796;10.956;2023-04-29T00:46:03;11.70;99.90
67901;DHT22;54700;51.796;10.956;2023-04-29T00:48:30;11.70;99.90
67901;DHT22;54700;51.796;10.956;2023-04-29T00:51:02;11.70;99.90
67901;DHT22;54700;51.796;10.956;2023-04-29T00:53:33;11.80;99.90
67901;DHT22;54700;51.796;10.956;2023-04-29T00:56:01;12.00;99.90
67901;DHT22;54700;51.796;10.956;2023-04-29T00:58:33;12.10;99.90
67901;DHT22;54700;51.796;10.956;2023-04-29T01:01:04;12.20;99.90
67901;DHT22;54700;51.796;10.956;2023-04-29T01:03:31;12.30;99.90
67901;DHT22;54700;51.796;10.956;2023-04-29T01:06:02;12.40;99.90
67901;DHT22;54700;51.796;10.956;2023-04-29T01:08:43;12.50;99.90
67901;DHT22;54700;51.796;10.956;2023-04-29T01:11:18;12.60;99.90
67901;DHT22;54700;51.796;10.956;2023-04-29T01:13:50;12.60;99.90
67901;DHT22;54700;51.796;10.956;2023-04-29T01:16:22;12.60;99.90
67901;DHT22;54700;51.796;10.956;2023-04-29T01:18:57;12.70;99.90
67901;DHT22;54700;51.796;10.956;2023-04-29T01:21:26;12.70;99.90
67901;DHT22;54700;51.796;10.956;2023-04-29T01:23:57;12.70;99.90
67901;DHT22;54700;51.796;10.956;2023-04-29T01:26:24;12.60;99.90
67901;DHT22;54700;51.796;10.956;2023-04-29T01:28:56;12.60;99.90
67901;DHT22;54700;51.796;10.956;2023-04-29T01:31:35;12.60;99.90
67901;DHT22;54700;51.796;10.956;2023-04-29T01:34:10;12.60;99.90
67901;DHT22;54700;51.796;10.956;2023-04-29T01:36:46;12.50;99.90
67901;DHT22;54700;51.796;10.956;2023-04-29T01:42:13;12.40;99.90
67901;DHT22;54700;51.796;10.956;2023-04-29T01:44:43;12.40;99.90
67901;DHT22;54700;51.796;10.956;2023-04-29T01:47:13;12.30;99.90
67901;DHT22;54700;51.796;10.956;2023-04-29T01:49:40;12.30;99.90
67901;DHT22;54700;51.796;10.956;2023-04-29T01:52:07;12.30;99.90
67901;DHT22;54700;51.796;10.956;2023-04-29T01:54:34;12.30;99.90
67901;DHT22;54700;51.796;10.956;2023-04-29T01:57:04;12.30;99.90
67901;DHT22;54700;51.796;10.956;2023-04-29T01:59:33;12.30;99.90
67901;DHT22;54700;51.796;10.956;2023-04-29T02:02:00;12.30;99.90
67901;DHT22;54700;51.796;10.956;2023-04-29T02:04:30;12.30;99.90
67901;DHT22;54700;51.796;10.956;2023-04-29T02:06:59;12.30;99.90
67901;DHT22;54700;51.796;10.956;2023-04-29T02:09:28;12.30;99.90
67901;DHT22;54700;51.796;10.956;2023-04-29T02:11:55;12.30;99.90
67901;DHT22;54700;51.796;10.956;2023-04-29T02:14:23;12.30;99.90
67901;DHT22;54700;51.796;10.956;2023-04-29T02:16:53;12.30;99.90
67901;DHT22;54700;51.796;10.956;2023-04-29T02:19:38;12.40;99.90
67901;DHT22;54700;51.796;10.956;2023-04-29T02:22:05;12.40;99.90
67901;DHT22;54700;51.796;10.956;2023-04-29T02:24:37;12.40;99.90
67901;DHT22;54700;51.796;10.956;2023-04-29T02:27:04;12.40;99.90
67901;DHT22;54700;51.796;10.956;2023-04-29T02:29:39;12.40;99.90
67901;DHT22;54700;51.796;10.956;2023-04-29T02:32:09;12.40;99.90
67901;DHT22;54700;51.796;10.956;2023-04-29T02:34:50;12.40;99.90
67901;DHT22;54700;51.796;10.956;2023-04-29T02:37:23;12.40;99.90
67901;DHT22;54700;51.796;10.956;2023-04-29T02:39:51;12.40;99.90
67901;DHT22;54700;51.796;10.956;2023-04-29T02:42:21;12.40;99.90
67901;DHT22;54700;51.796;10.956;2023-04-29T02:44:51;12.40;99.90
67901;DHT22;54700;51.796;10.956;2023-04-29T02:47:20;12.40;99.90
67901;DHT22;54700;51.796;10.956;2023-04-29T02:49:50;12.40;99.90
67901;DHT22;54700;51.796;10.956;2023-04-29T02:52:20;12.40;99.90
67901;DHT22;54700;51.796;10.956;2023-04-29T02:54:49;12.40;99.90
67901;DHT22;54700;51.796;10.956;2023-04-29T02:57:19;12.40;99.90
67901;DHT22;54700;51.796;10.956;2023-04-29T02:59:45;12.30;99.90
67901;DHT22;54700;51.796;10.956;2023-04-29T03:02:16;12.30;99.90
67901;DHT22;54700;51.796;10.956;2023-04-29T03:04:43;12.30;99.90
67901;DHT22;54700;51.796;10.956;2023-04-29T03:07:15;12.30;99.90
67901;DHT22;54700;51.796;10.956;2023-04-29T03:09:42;12.20;99.90
67901;DHT22;54700;51.796;10.956;2023-04-29T03:12:13;12.20;99.90
67901;DHT22;54700;51.796;10.956;2023-04-29T03:14:41;12.20;99.90
67901;DHT22;54700;51.796;10.956;2023-04-29T03:17:10;12.20;99.90
67901;DHT22;54700;51.796;10.956;2023-04-29T03:19:39;12.20;99.90
67901;DHT22;54700;51.796;10.956;2023-04-29T03:22:06;12.20;99.90
67901;DHT22;54700;51.796;10.956;2023-04-29T03:24:35;12.10;99.90
67901;DHT22;54700;51.796;10.956;2023-04-29T03:27:03;12.10;99.90
67901;DHT22;54700;51.796;10.956;2023-04-29T03:29:30;12.10;99.90
67901;DHT22;54700;51.796;10.956;2023-04-29T03:32:02;12.10;99.90
67901;DHT22;54700;51.796;10.956;2023-04-29T03:34:29;12.00;99.90
67901;DHT22;54700;51.796;10.956;2023-04-29T03:36:58;12.00;99.90
67901;DHT22;54700;51.796;10.956;2023-04-29T03:39:25;11.90;99.90
67901;DHT22;54700;51.796;10.956;2023-04-29T03:41:56;11.90;99.90
67901;DHT22;54700;51.796;10.956;2023-04-29T03:44:23;11.90;99.90
67901;DHT22;54700;51.796;10.956;2023-04-29T03:46:50;11.80;99.90
67901;DHT22;54700;51.796;10.956;2023-04-29T03:49:17;11.80;99.90
67901;DHT22;54700;51.796;10.956;2023-04-29T03:51:44;11.80;99.90
67901;DHT22;54700;51.796;10.956;2023-04-29T03:54:12;11.70;99.90
67901;DHT22;54700;51.796;10.956;2023-04-29T03:56:39;11.70;99.90
67901;DHT22;54700;51.796;10.956;2023-04-29T03:59:07;11.70;99.90
67901;DHT22;54700;51.796;10.956;2023-04-29T04:01:37;11.60;99.90
67901;DHT22;54700;51.796;10.956;2023-04-29T04:04:04;11.60;99.90
67901;DHT22;54700;51.796;10.956;2023-04-29T04:06:32;11.60;99.90
67901;DHT22;54700;51.796;10.956;2023-04-29T04:09:03;11.50;99.90
67901;DHT22;54700;51.796;10.956;2023-04-29T04:11:32;11.50;99.90
67901;DHT22;54700;51.796;10.956;2023-04-29T04:14:00;11.50;99.90
67901;DHT22;54700;51.796;10.956;2023-04-29T04:16:27;11.50;99.90
67901;DHT22;54700;51.796;10.956;2023-04-29T04:18:55;11.50;99.90
67901;DHT22;54700;51.796;10.956;2023-04-29T04:21:22;11.50;99.90
67901;DHT22;54700;51.796;10.956;2023-04-29T04:23:49;11.50;99.90
67901;DHT22;54700;51.796;10.956;2023-04-29T04:26:16;11.40;99.90
67901;DHT22;54700;51.796;10.956;2023-04-29T04:28:46;11.40;99.90
67901;DHT22;54700;51.796;10.956;2023-04-29T04:31:13;11.50;99.90
67901;DHT22;54700;51.796;10.956;2023-04-29T04:33:40;11.50;99.90
67901;DHT22;54700;51.796;10.956;2023-04-29T04:36:07;11.50;99.90
67901;DHT22;54700;51.796;10.956;2023-04-29T04:38:38;11.50;99.90
67901;DHT22;54700;51.796;10.956;2023-04-29T04:41:07;11.60;99.90
67901;DHT22;54700;51.796;10.956;2023-04-29T04:43:35;11.60;99.90
67901;DHT22;54700;51.796;10.956;2023-04-29T04:46:09;11.60;99.90
67901;DHT22;54700;51.796;10.956;2023-04-29T04:48:37;11.60;99.90
67901;DHT22;54700;51.796;10.956;2023-04-29T04:51:06;11.60;99.90
67901;DHT22;54700;51.796;10.956;2023-04-29T04:53:34;11.60;99.90
67901;DHT22;54700;51.796;10.956;2023-04-29T04:56:01;11.60;99.90
67901;DHT22;54700;51.796;10.956;2023-04-29T04:58:28;11.50;99.90
67901;DHT22;54700;51.796;10.956;2023-04-29T05:00:56;11.40;99.90
67901;DHT22;54700;51.796;10.956;2023-04-29T05:03:24;11.30;99.90
67901;DHT22;54700;51.796;10.956;2023-04-29T05:05:52;11.20;99.90
67901;DHT22;54700;51.796;10.956;2023-04-29T05:08:19;11.20;99.90
67901;DHT22;54700;51.796;10.956;2023-04-29T05:10:46;11.10;99.90
67901;DHT22;54700;51.796;10.956;2023-04-29T05:13:15;11.10;99.90
67901;DHT22;54700;51.796;10.956;2023-04-29T05:15:42;11.10;99.90
67901;DHT22;54700;51.796;10.956;2023-04-29T05:18:10;11.00;99.90
67901;DHT22;54700;51.796;10.956;2023-04-29T05:20:38;11.00;99.90
67901;DHT22;54700;51.796;10.956;2023-04-29T05:23:05;10.90;99.90
67901;DHT22;54700;51.796;10.956;2023-04-29T05:25:34;10.90;99.90
67901;DHT22;54700;51.796;10.956;2023-04-29T05:28:01;10.90;99.90
67901;DHT22;54700;51.796;10.956;2023-04-29T05:30:29;10.80;99.90
67901;DHT22;54700;51.796;10.956;2023-04-29T05:32:56;10.80;99.90
67901;DHT22;54700;51.796;10.956;2023-04-29T05:35:23;10.80;99.90
67901;DHT22;54700;51.796;10.956;2023-04-29T05:37:52;10.80;99.90
67901;DHT22;54700;51.796;10.956;2023-04-29T05:40:19;10.80;99.90
67901;DHT22;54700;51.796;10.956;2023-04-29T05:42:47;10.90;99.90
67901;DHT22;54700;51.796;10.956;2023-04-29T05:45:14;10.90;99.90
67901;DHT22;54700;51.796;10.956;2023-04-29T05:47:44;10.90;99.90
67901;DHT22;54700;51.796;10.956;2023-04-29T05:50:11;10.90;99.90
67901;DHT22;54700;51.796;10.956;2023-04-29T05:52:41;10.90;99.90
67901;DHT22;54700;51.796;10.956;2023-04-29T05:55:12;10.90;99.90
67901;DHT22;54700;51.796;10.956;2023-04-29T05:57:45;10.80;99.90
67901;DHT22;54700;51.796;10.956;2023-04-29T06:00:16;10.80;99.90
67901;DHT22;54700;51.796;10.956;2023-04-29T06:02:43;10.80;99.90
67901;DHT22;54700;51.796;10.956;2023-04-29T06:05:12;10.70;99.90
67901;DHT22;54700;51.796;10.956;2023-04-29T06:07:40;10.60;99.90
67901;DHT22;54700;51.796;10.956;2023-04-29T06:10:09;10.50;99.90
67901;DHT22;54700;51.796;10.956;2023-04-29T06:12:41;10.40;99.90
67901;DHT22;54700;51.796;10.956;2023-04-29T06:15:08;10.30;99.90
67901;DHT22;54700;51.796;10.956;2023-04-29T06:17:35;10.30;99.90
67901;DHT22;54700;51.796;10.956;2023-04-29T06:20:04;10.30;99.90
67901;DHT22;54700;51.796;10.956;2023-04-29T06:22:32;10.30;99.90
67901;DHT22;54700;51.796;10.956;2023-04-29T06:24:58;10.30;99.90
67901;DHT22;54700;51.796;10.956;2023-04-29T06:27:25;10.40;99.90
67901;DHT22;54700;51.796;10.956;2023-04-29T06:29:55;10.40;99.90
67901;DHT22;54700;51.796;10.956;2023-04-29T06:32:22;10.40;99.90
67901;DHT22;54700;51.796;10.956;2023-04-29T06:34:49;10.50;99.90
67901;DHT22;54700;51.796;10.956;2023-04-29T06:37:16;10.50;99.90
67901;DHT22;54700;51.796;10.956;2023-04-29T06:39:44;10.60;99.90
67901;DHT22;54700;51.796;10.956;2023-04-29T06:42:11;10.60;99.90
67901;DHT22;54700;51.796;10.956;2023-04-29T06:44:38;10.60;99.90
67901;DHT22;54700;51.796;10.956;2023-04-29T06:47:06;10.60;99.90
67901;DHT22;54700;51.796;10.956;2023-04-29T06:49:35;10.60;99.90
67901;DHT22;54700;51.796;10.956;2023-04-29T06:52:02;10.60;99.90
67901;DHT22;54700;51.796;10.956;2023-04-29T06:54:32;10.60;99.90
67901;DHT22;54700;51.796;10.956;2023-04-29T06:57:00;10.70;99.90
67901;DHT22;54700;51.796;10.956;2023-04-29T06:59:27;10.70;99.90
67901;DHT22;54700;51.796;10.956;2023-04-29T07:01:54;10.60;99.90
67901;DHT22;54700;51.796;10.956;2023-04-29T07:04:22;10.60;99.90
67901;DHT22;54700;51.796;10.956;2023-04-29T07:06:49;10.70;99.90
67901;DHT22;54700;51.796;10.956;2023-04-29T07:09:23;10.70;99.90
67901;DHT22;54700;51.796;10.956;2023-04-29T07:11:51;10.60;99.90
67901;DHT22;54700;51.796;10.956;2023-04-29T07:14:19;10.60;99.90
67901;DHT22;54700;51.796;10.956;2023-04-29T07:16:53;10.60;99.90
67901;DHT22;54700;51.796;10.956;2023-04-29T07:19:20;10.60;99.90
67901;DHT22;54700;51.796;10.956;2023-04-29T07:21:52;10.50;99.90
67901;DHT22;54700;51.796;10.956;2023-04-29T07:24:19;10.50;99.90
67901;DHT22;54700;51.796;10.956;2023-04-29T07:26:47;10.40;99.90
67901;DHT22;54700;51.796;10.956;2023-04-29T07:29:17;10.40;99.90
67901;DHT22;54700;51.796;10.956;2023-04-29T07:31:44;10.40;99.90
67901;DHT22;54700;51.796;10.956;2023-04-29T07:34:11;10.30;99.90
67901;DHT22;54700;51.796;10.956;2023-04-29T07:36:38;10.30;99.90
67901;DHT22;54700;51.796;10.956;2023-04-29T07:39:06;10.20;99.90
67901;DHT22;54700;51.796;10.956;2023-04-29T07:41:33;10.20;99.90
67901;DHT22;54700;51.796;10.956;2023-04-29T07:44:00;10.20;99.90
67901;DHT22;54700;51.796;10.956;2023-04-29T07:46:28;10.20;99.90
67901;DHT22;54700;51.796;10.956;2023-04-29T07:48:55;10.10;99.90
67901;DHT22;54700;51.796;10.956;2023-04-29T07:51:22;10.10;99.90
67901;DHT22;54700;51.796;10.956;2023-04-29T07:53:49;10.10;99.90
67901;DHT22;54700;51.796;10.956;2023-04-29T07:56:17;10.10;99.90
67901;DHT22;54700;51.796;10.956;2023-04-29T07:58:44;10.10;99.90
67901;DHT22;54700;51.796;10.956;2023-04-29T08:01:11;10.00;99.90
67901;DHT22;54700;51.796;10.956;2023-04-29T08:03:39;9.90;99.90
67901;DHT22;54700;51.796;10.956;2023-04-29T08:06:09;10.00;99.90
67901;DHT22;54700;51.796;10.956;2023-04-29T08:08:36;10.00;99.90
67901;DHT22;54700;51.796;10.956;2023-04-29T08:11:03;10.00;99.90
67901;DHT22;54700;51.796;10.956;2023-04-29T08:13:32;9.90;99.90
67901;DHT22;54700;51.796;10.956;2023-04-29T08:15:59;9.80;99.90
67901;DHT22;54700;51.796;10.956;2023-04-29T08:18:26;9.80;99.90
67901;DHT22;54700;51.796;10.956;2023-04-29T08:20:55;9.70;99.90
67901;DHT22;54700;51.796;10.956;2023-04-29T08:23:24;9.70;99.90
67901;DHT22;54700;51.796;10.956;2023-04-29T08:25:51;9.70;99.90
67901;DHT22;54700;51.796;10.956;2023-04-29T08:28:20;9.60;99.90
67901;DHT22;54700;51.796;10.956;2023-04-29T08:30:48;9.60;99.90
67901;DHT22;54700;51.796;10.956;2023-04-29T08:33:18;9.50;99.90
67901;DHT22;54700;51.796;10.956;2023-04-29T08:35:48;9.50;99.90
67901;DHT22;54700;51.796;10.956;2023-04-29T08:38:27;9.50;99.90
67901;DHT22;54700;51.796;10.956;2023-04-29T08:40:57;9.50;99.90
67901;DHT22;54700;51.796;10.956;2023-04-29T08:43:25;9.50;99.90
67901;DHT22;54700;51.796;10.956;2023-04-29T08:45:54;9.60;99.90
67901;DHT22;54700;51.796;10.956;2023-04-29T08:48:24;9.70;99.90
67901;DHT22;54700;51.796;10.956;2023-04-29T08:50:53;9.70;99.90
67901;DHT22;54700;51.796;10.956;2023-04-29T08:53:20;9.80;99.90
67901;DHT22;54700;51.796;10.956;2023-04-29T08:55:48;9.90;99.90
67901;DHT22;54700;51.796;10.956;2023-04-29T08:58:15;9.90;99.90
67901;DHT22;54700;51.796;10.956;2023-04-29T09:00:42;9.80;99.90
67901;DHT22;54700;51.796;10.956;2023-04-29T09:03:13;9.70;99.90
67901;DHT22;54700;51.796;10.956;2023-04-29T09:05:42;9.70;99.90
67901;DHT22;54700;51.796;10.956;2023-04-29T09:08:14;9.70;99.90
67901;DHT22;54700;51.796;10.956;2023-04-29T09:10:42;9.70;99.90
67901;DHT22;54700;51.796;10.956;2023-04-29T09:13:17;9.70;99.90
67901;DHT22;54700;51.796;10.956;2023-04-29T09:15:48;9.70;99.90
67901;DHT22;54700;51.796;10.956;2023-04-29T09:21:14;9.70;99.90
67901;DHT22;54700;51.796;10.956;2023-04-29T09:23:42;9.80;99.90
67901;DHT22;54700;51.796;10.956;2023-04-29T09:26:09;9.80;99.90
67901;DHT22;54700;51.796;10.956;2023-04-29T09:28:39;9.80;99.90
67901;DHT22;54700;51.796;10.956;2023-04-29T09:31:11;9.80;99.90
67901;DHT22;54700;51.796;10.956;2023-04-29T09:33:49;9.90;99.90
67901;DHT22;54700;51.796;10.956;2023-04-29T09:36:34;10.00;99.90
67901;DHT22;54700;51.796;10.956;2023-04-29T09:39:03;10.00;99.90
67901;DHT22;54700;51.796;10.956;2023-04-29T09:41:42;10.10;99.90
67901;DHT22;54700;51.796;10.956;2023-04-29T09:44:25;10.30;99.90
67901;DHT22;54700;51.796;10.956;2023-04-29T09:46:59;10.60;99.90
67901;DHT22;54700;51.796;10.956;2023-04-29T09:49:29;10.90;99.90
67901;DHT22;54700;51.796;10.956;2023-04-29T09:52:02;10.90;99.90
67901;DHT22;54700;51.796;10.956;2023-04-29T09:54:33;10.90;99.90
67901;DHT22;54700;51.796;10.956;2023-04-29T09:57:03;11.00;99.90
67901;DHT22;54700;51.796;10.956;2023-04-29T09:59:31;11.10;99.90
67901;DHT22;54700;51.796;10.956;2023-04-29T10:02:00;11.30;99.90
67901;DHT22;54700;51.796;10.956;2023-04-29T10:04:38;11.40;99.90
67901;DHT22;54700;51.796;10.956;2023-04-29T10:07:09;11.40;99.90
67901;DHT22;54700;51.796;10.956;2023-04-29T10:09:40;11.50;98.90
67901;DHT22;54700;51.796;10.956;2023-04-29T10:12:09;11.50;97.50
67901;DHT22;54700;51.796;10.956;2023-04-29T10:14:44;11.60;96.50
67901;DHT22;54700;51.796;10.956;2023-04-29T10:17:27;11.70;96.40
67901;DHT22;54700;51.796;10.956;2023-04-29T10:20:04;11.80;96.70
67901;DHT22;54700;51.796;10.956;2023-04-29T10:22:43;12.00;94.60
67901;DHT22;54700;51.796;10.956;2023-04-29T10:25:18;12.10;93.70
67901;DHT22;54700;51.796;10.956;2023-04-29T10:27:49;12.20;91.00
67901;DHT22;54700;51.796;10.956;2023-04-29T10:30:21;12.00;92.20
67901;DHT22;54700;51.796;10.956;2023-04-29T10:32:50;11.80;93.80
67901;DHT22;54700;51.796;10.956;2023-04-29T10:35:19;11.70;95.00
67901;DHT22;54700;51.796;10.956;2023-04-29T10:37:49;11.50;95.70
67901;DHT22;54700;51.796;10.956;2023-04-29T10:40:21;11.50;96.40
67901;DHT22;54700;51.796;10.956;2023-04-29T10:42:53;11.60;96.10
67901;DHT22;54700;51.796;10.956;2023-04-29T10:45:21;11.80;95.20
67901;DHT22;54700;51.796;10.956;2023-04-29T10:53:26;11.70;94.40
67901;DHT22;54700;51.796;10.956;2023-04-29T10:55:58;11.60;95.00
67901;DHT22;54700;51.796;10.956;2023-04-29T10:58:33;11.50;95.30
67901;DHT22;54700;51.796;10.956;2023-04-29T11:01:02;11.30;95.80
67901;DHT22;54700;51.796;10.956;2023-04-29T11:06:37;11.20;97.50
67901;DHT22;54700;51.796;10.956;2023-04-29T11:09:07;11.30;97.20
67901;DHT22;54700;51.796;10.956;2023-04-29T11:14:34;11.40;96.60
67901;DHT22;54700;51.796;10.956;2023-04-29T11:17:02;11.70;95.30
67901;DHT22;54700;51.796;10.956;2023-04-29T11:19:31;12.00;95.10
67901;DHT22;54700;51.796;10.956;2023-04-29T11:22:08;12.30;91.60
67901;DHT22;54700;51.796;10.956;2023-04-29T11:24:50;12.40;88.50
67901;DHT22;54700;51.796;10.956;2023-04-29T11:27:19;12.50;88.90
67901;DHT22;54700;51.796;10.956;2023-04-29T11:29:49;12.60;88.20
67901;DHT22;54700;51.796;10.956;2023-04-29T11:32:20;12.60;87.10
67901;DHT22;54700;51.796;10.956;2023-04-29T11:34:48;12.60;86.50
67901;DHT22;54700;51.796;10.956;2023-04-29T11:37:23;12.60;84.60
67901;DHT22;54700;51.796;10.956;2023-04-29T11:39:57;12.60;82.50
67901;DHT22;54700;51.796;10.956;2023-04-29T11:42:27;12.60;82.90
67901;DHT22;54700;51.796;10.956;2023-04-29T11:44:54;12.80;84.00
67901;DHT22;54700;51.796;10.956;2023-04-29T11:47:26;13.00;82.80
67901;DHT22;54700;51.796;10.956;2023-04-29T11:50:01;13.20;79.90
67901;DHT22;54700;51.796;10.956;2023-04-29T11:52:30;13.30;75.50
67901;DHT22;54700;51.796;10.956;2023-04-29T11:54:57;13.30;70.40
67901;DHT22;54700;51.796;10.956;2023-04-29T11:57:24;13.10;70.90
67901;DHT22;54700;51.796;10.956;2023-04-29T12:00:07;13.00;72.30
67901;DHT22;54700;51.796;10.956;2023-04-29T12:02:34;13.00;72.40
67901;DHT22;54700;51.796;10.956;2023-04-29T12:05:04;13.10;72.60
67901;DHT22;54700;51.796;10.956;2023-04-29T12:07:33;13.00;73.90
67901;DHT22;54700;51.796;10.956;2023-04-29T12:10:02;13.00;75.20
67901;DHT22;54700;51.796;10.956;2023-04-29T12:12:33;13.10;75.80
67901;DHT22;54700;51.796;10.956;2023-04-29T12:15:05;13.20;73.00
67901;DHT22;54700;51.796;10.956;2023-04-29T12:17:39;13.20;72.90
67901;DHT22;54700;51.796;10.956;2023-04-29T12:20:14;13.30;74.10
67901;DHT22;54700;51.796;10.956;2023-04-29T12:22:42;13.10;71.30
67901;DHT22;54700;51.796;10.956;2023-04-29T12:25:11;13.00;71.80
67901;DHT22;54700;51.796;10.956;2023-04-29T12:27:41;13.00;73.80
67901;DHT22;54700;51.796;10.956;2023-04-29T12:30:10;13.00;76.40
67901;DHT22;54700;51.796;10.956;2023-04-29T12:35:20;12.90;76.80
67901;DHT22;54700;51.796;10.956;2023-04-29T12:37:49;13.00;76.80
67901;DHT22;54700;51.796;10.956;2023-04-29T12:40:20;12.80;78.50
67901;DHT22;54700;51.796;10.956;2023-04-29T12:42:48;12.90;79.20
67901;DHT22;54700;51.796;10.956;2023-04-29T12:45:25;12.90;76.00
67901;DHT22;54700;51.796;10.956;2023-04-29T12:47:52;13.00;74.00
67901;DHT22;54700;51.796;10.956;2023-04-29T12:50:28;13.10;74.40
67901;DHT22;54700;51.796;10.956;2023-04-29T12:52:59;13.10;71.80
67901;DHT22;54700;51.796;10.956;2023-04-29T12:55:26;13.20;72.60
67901;DHT22;54700;51.796;10.956;2023-04-29T12:57:53;13.20;73.90
67901;DHT22;54700;51.796;10.956;2023-04-29T13:00:23;13.20;72.50
67901;DHT22;54700;51.796;10.956;2023-04-29T13:02:54;13.20;74.40
67901;DHT22;54700;51.796;10.956;2023-04-29T13:05:25;13.30;74.40
67901;DHT22;54700;51.796;10.956;2023-04-29T13:07:55;13.40;72.90
67901;DHT22;54700;51.796;10.956;2023-04-29T13:10:25;13.40;72.50
67901;DHT22;54700;51.796;10.956;2023-04-29T13:12:54;13.30;73.00
67901;DHT22;54700;51.796;10.956;2023-04-29T13:15:23;13.20;73.80
67901;DHT22;54700;51.796;10.956;2023-04-29T13:17:50;13.10;75.20
67901;DHT22;54700;51.796;10.956;2023-04-29T13:20:17;13.10;76.20
67901;DHT22;54700;51.796;10.956;2023-04-29T13:22:47;13.10;76.80
67901;DHT22;54700;51.796;10.956;2023-04-29T13:25:15;13.20;76.40
67901;DHT22;54700;51.796;10.956;2023-04-29T13:27:43;13.30;75.00
67901;DHT22;54700;51.796;10.956;2023-04-29T13:30:12;13.40;74.60
67901;DHT22;54700;51.796;10.956;2023-04-29T13:32:45;13.40;72.10
67901;DHT22;54700;51.796;10.956;2023-04-29T13:35:15;13.50;73.30
67901;DHT22;54700;51.796;10.956;2023-04-29T13:37:42;13.50;74.60
67901;DHT22;54700;51.796;10.956;2023-04-29T13:40:09;13.30;73.90
67901;DHT22;54700;51.796;10.956;2023-04-29T13:42:37;12.90;75.10
67901;DHT22;54700;51.796;10.956;2023-04-29T13:45:06;12.90;77.80
67901;DHT22;54700;51.796;10.956;2023-04-29T13:47:33;12.70;80.30
67901;DHT22;54700;51.796;10.956;2023-04-29T13:50:01;12.70;82.20
67901;DHT22;54700;51.796;10.956;2023-04-29T13:52:28;12.70;82.60
67901;DHT22;54700;51.796;10.956;2023-04-29T13:54:55;12.80;80.70
67901;DHT22;54700;51.796;10.956;2023-04-29T13:57:22;12.80;79.50
67901;DHT22;54700;51.796;10.956;2023-04-29T13:59:54;12.90;78.20
67901;DHT22;54700;51.796;10.956;2023-04-29T14:02:24;13.00;77.10
67901;DHT22;54700;51.796;10.956;2023-04-29T14:04:51;13.00;76.10
67901;DHT22;54700;51.796;10.956;2023-04-29T14:07:18;13.10;74.70
67901;DHT22;54700;51.796;10.956;2023-04-29T14:09:45;13.30;75.30
67901;DHT22;54700;51.796;10.956;2023-04-29T14:12:13;13.50;74.20
67901;DHT22;54700;51.796;10.956;2023-04-29T14:14:40;13.60;70.90
67901;DHT22;54700;51.796;10.956;2023-04-29T14:17:09;13.70;71.70
67901;DHT22;54700;51.796;10.956;2023-04-29T14:19:38;13.70;70.10
67901;DHT22;54700;51.796;10.956;2023-04-29T14:22:05;13.70;69.30
67901;DHT22;54700;51.796;10.956;2023-04-29T14:24:35;13.70;69.40
67901;DHT22;54700;51.796;10.956;2023-04-29T14:27:03;13.70;69.30
67901;DHT22;54700;51.796;10.956;2023-04-29T14:29:30;13.70;68.80
67901;DHT22;54700;51.796;10.956;2023-04-29T14:31:58;13.60;68.50
67901;DHT22;54700;51.796;10.956;2023-04-29T14:34:25;13.60;68.10
67901;DHT22;54700;51.796;10.956;2023-04-29T14:36:53;13.60;69.00
67901;DHT22;54700;51.796;10.956;2023-04-29T14:39:23;13.70;68.90
67901;DHT22;54700;51.796;10.956;2023-04-29T14:41:50;13.70;68.60
67901;DHT22;54700;51.796;10.956;2023-04-29T14:44:17;13.70;68.80
67901;DHT22;54700;51.796;10.956;2023-04-29T14:46:44;13.70;70.50
67901;DHT22;54700;51.796;10.956;2023-04-29T14:49:11;13.80;70.70
67901;DHT22;54700;51.796;10.956;2023-04-29T14:51:38;13.80;70.70
67901;DHT22;54700;51.796;10.956;2023-04-29T14:54:06;13.70;69.00
67901;DHT22;54700;51.796;10.956;2023-04-29T14:56:35;13.70;68.70
67901;DHT22;54700;51.796;10.956;2023-04-29T14:59:02;13.70;67.90
67901;DHT22;54700;51.796;10.956;2023-04-29T15:01:31;13.60;66.40
67901;DHT22;54700;51.796;10.956;2023-04-29T15:03:58;13.60;66.50
67901;DHT22;54700;51.796;10.956;2023-04-29T15:06:25;13.60;67.20
67901;DHT22;54700;51.796;10.956;2023-04-29T15:08:52;13.50;65.80
67901;DHT22;54700;51.796;10.956;2023-04-29T15:11:21;13.50;66.50
67901;DHT22;54700;51.796;10.956;2023-04-29T15:13:50;13.50;67.80
67901;DHT22;54700;51.796;10.956;2023-04-29T15:16:17;13.50;66.80
67901;DHT22;54700;51.796;10.956;2023-04-29T15:18:44;13.50;67.40
67901;DHT22;54700;51.796;10.956;2023-04-29T15:21:11;13.50;67.90
67901;DHT22;54700;51.796;10.956;2023-04-29T15:23:38;13.50;67.60
67901;DHT22;54700;51.796;10.956;2023-04-29T15:26:05;13.40;67.70
67901;DHT22;54700;51.796;10.956;2023-04-29T15:28:34;13.30;69.10
67901;DHT22;54700;51.796;10.956;2023-04-29T15:31:01;13.20;68.90
67901;DHT22;54700;51.796;10.956;2023-04-29T15:33:29;13.10;69.20
67901;DHT22;54700;51.796;10.956;2023-04-29T15:35:57;13.10;69.70
67901;DHT22;54700;51.796;10.956;2023-04-29T15:38:24;13.00;70.70
67901;DHT22;54700;51.796;10.956;2023-04-29T15:40:51;13.00;70.70
67901;DHT22;54700;51.796;10.956;2023-04-29T15:43:24;12.90;71.10
67901;DHT22;54700;51.796;10.956;2023-04-29T15:45:53;12.90;71.40
67901;DHT22;54700;51.796;10.956;2023-04-29T15:48:20;12.80;71.90
67901;DHT22;54700;51.796;10.956;2023-04-29T15:50:47;12.90;71.70